LEVC/VLC METAR and TAF weather

Enter ICAO airport designator
Station Type Date Time Source
LEVC METAR 2022/01/26 20:30 UTC NOAA

LEVC 262030Z 31002KT CAVOK 06/05 Q1030 NOSIG


Station Type Date Time Source
LEVC Decoded METAR 2022/01/26 20:30 UTC NOAA

Valencia / Aeropuerto, Spain (LEVC) 39-30N 000-28W 62M
Jan 26, 2022 - 03:30 PM EST / 2022.01.26 2030 UTC
Wind: from the NW (310 degrees) at 2 MPH (2 KT):0
Visibility: greater than 7 mile(s):0
Temperature: 42 F (6 C)
Dew Point: 41 F (5 C)
Relative Humidity: 93%
Pressure (altimeter): 30.42 in. Hg (1030 hPa)
ob: LEVC 262030Z 31002KT CAVOK 06/05 Q1030 NOSIG
cycle: 20

Station Type Date Time Source
LEVC TAF 2022/01/26 18:27 UTC NOAA

TAF LEVC 261700Z 2618/2718 32005KT 9999 FEW030 TX15/2714Z TN01/2706Z

Example: see airport list